Time;durP1;ratioP1;P1;durP2;ratioP2;P2;SDS_P1;SDS_P2;PMS_P1;PMS_P2;Temp;Humidity;BMP_temperature;BMP_pressure;BME280_temperature;BME280_humidity;BME280_pressure;Samples;Min_cycle;Max_cycle;Signal;HPM_P1;HPM_P2
2023/06/27 00:01:53;;;;;;;8.57;3.25;;;;;;;18.54;85.56;98436.19;4484968;31;20123;-67
2023/06/27 00:04:23;;;;;;;9.73;3.65;;;;;;;18.46;85.19;98439.84;4484906;31;20088;-67
2023/06/27 00:06:51;;;;;;;6.30;3.45;;;;;;;18.49;83.85;98430.66;4484974;32;20603;-66
2023/06/27 00:09:19;;;;;;;6.30;3.45;;;;;;;18.54;80.91;98434.34;4481523;32;20489;-67
2023/06/27 00:11:46;;;;;;;4.87;2.80;;;;;;;18.63;79.90;98433.16;4469071;32;20116;-67
2023/06/27 00:14:14;;;;;;;4.62;2.97;;;;;;;18.72;79.01;98438.31;4480030;32;20476;-67
2023/06/27 00:16:41;;;;;;;5.97;3.15;;;;;;;18.77;78.90;98450.00;4484708;31;20465;-67
2023/06/27 00:19:10;;;;;;;5.35;3.35;;;;;;;18.82;78.19;98438.78;4484839;31;20092;-67
2023/06/27 00:21:37;;;;;;;6.15;3.20;;;;;;;18.99;77.33;98436.59;4485096;31;20165;-67
2023/06/27 00:24:05;;;;;;;4.97;3.20;;;;;;;19.05;77.33;98437.66;4483491;32;20112;-67
2023/06/27 00:26:33;;;;;;;4.75;2.90;;;;;;;19.11;76.40;98439.50;4484925;32;20526;-67
2023/06/27 00:29:01;;;;;;;5.62;2.90;;;;;;;19.09;76.64;98441.53;4484953;31;20407;-67
2023/06/27 00:31:30;;;;;;;6.45;3.20;;;;;;;19.10;75.61;98446.63;4484276;31;20165;-67
2023/06/27 00:33:58;;;;;;;5.03;2.75;;;;;;;19.26;75.13;98436.69;4484802;31;20379;-67
2023/06/27 00:36:25;;;;;;;3.78;2.75;;;;;;;19.27;74.51;98439.13;4484418;31;20116;-67
2023/06/27 00:38:53;;;;;;;5.07;3.20;;;;;;;19.35;73.98;98440.78;4484689;31;20119;-67
2023/06/27 00:41:20;;;;;;;5.68;3.15;;;;;;;19.40;73.20;98442.84;4484407;32;20139;-67
2023/06/27 00:43:47;;;;;;;5.20;3.05;;;;;;;19.42;73.63;98440.78;4484748;32;20095;-67
2023/06/27 00:46:35;;;;;;;5.00;3.20;;;;;;;19.35;73.49;98447.91;4483007;32;20097;-67
2023/06/27 00:49:05;;;;;;;4.90;3.08;;;;;;;19.48;73.49;98453.25;4483311;32;20138;-67
2023/06/27 00:51:32;;;;;;;6.53;2.83;;;;;;;19.48;73.15;98446.09;4483038;32;20134;-67
2023/06/27 00:54:00;;;;;;;4.30;2.90;;;;;;;19.60;72.48;98434.88;4484292;31;20104;-67
2023/06/27 00:56:27;;;;;;;5.12;3.17;;;;;;;19.63;72.48;98426.50;4482993;32;20097;-67
2023/06/27 00:58:57;;;;;;;4.07;2.72;;;;;;;19.70;71.78;98427.31;4482816;32;20134;-67
2023/06/27 01:01:24;;;;;;;4.00;2.92;;;;;;;19.74;71.17;98433.03;4484311;31;20096;-67
2023/06/27 01:03:52;;;;;;;7.05;2.83;;;;;;;19.73;70.82;98423.41;4484498;31;20159;-67
2023/06/27 01:06:26;;;;;;;5.82;3.15;;;;;;;19.68;71.52;98424.88;4483912;31;20102;-67
2023/06/27 01:09:03;;;;;;;7.85;3.12;;;;;;;19.63;71.15;98432.63;4484433;31;20442;-67
2023/06/27 01:11:44;;;;;;;5.25;2.87;;;;;;;19.61;71.11;98421.38;4467197;32;20447;-67
2023/06/27 01:14:13;;;;;;;3.58;2.37;;;;;;;19.62;71.13;98417.72;4479671;32;20095;-67
2023/06/27 01:16:40;;;;;;;5.07;3.10;;;;;;;19.60;71.15;98411.78;4482605;32;20119;-67
2023/06/27 01:19:12;;;;;;;8.60;3.10;;;;;;;19.53;71.52;98410.97;4484242;31;20084;-67
2023/06/27 01:21:39;;;;;;;4.72;3.00;;;;;;;19.48;71.67;98411.56;4482887;32;20176;-67
2023/06/27 01:24:07;;;;;;;4.72;3.15;;;;;;;19.47;72.92;98401.13;4483999;31;20092;-67
2023/06/27 01:26:35;;;;;;;4.35;3.00;;;;;;;19.42;73.01;98404.41;4484207;31;20529;-67
2023/06/27 01:29:02;;;;;;;7.57;3.40;;;;;;;19.42;73.04;98403.59;4486124;32;20156;-67
2023/06/27 01:31:36;;;;;;;6.68;3.00;;;;;;;19.33;74.58;98398.50;4485820;31;20407;-67
2023/06/27 01:34:15;;;;;;;3.75;2.62;;;;;;;19.21;76.05;98388.66;4471954;32;20185;-67
2023/06/27 01:36:50;;;;;;;4.85;3.10;;;;;;;19.11;77.11;98387.22;4484913;32;20080;-67
2023/06/27 01:39:21;;;;;;;5.72;2.78;;;;;;;19.01;77.39;98384.13;4484839;32;20073;-67
2023/06/27 01:41:51;;;;;;;5.20;3.22;;;;;;;18.99;78.44;98388.03;4485022;32;20158;-67
2023/06/27 01:44:20;;;;;;;5.22;3.15;;;;;;;18.92;80.18;98380.03;4484702;32;20133;-67
2023/06/27 01:46:48;;;;;;;5.78;3.10;;;;;;;18.83;81.43;98384.66;4484858;32;20611;-67
2023/06/27 01:49:15;;;;;;;4.57;3.08;;;;;;;18.75;83.30;98390.16;4484707;32;20119;-67
2023/06/27 01:51:43;;;;;;;5.18;2.95;;;;;;;18.73;81.28;98384.25;4485973;31;20097;-67
2023/06/27 01:54:10;;;;;;;4.80;2.80;;;;;;;18.73;81.29;98389.56;4485900;31;20118;-67
2023/06/27 01:56:37;;;;;;;4.65;3.05;;;;;;;18.69;80.38;98383.00;4485741;31;20512;-67
2023/06/27 01:59:05;;;;;;;5.00;2.62;;;;;;;18.79;78.10;98388.75;4485942;31;20100;-67
2023/06/27 02:01:32;;;;;;;3.50;2.78;;;;;;;18.80;76.16;98379.75;4485952;31;20765;-67
2023/06/27 02:04:03;;;;;;;6.10;2.60;;;;;;;18.85;75.00;98393.28;4486105;31;20088;-67
2023/06/27 02:06:30;;;;;;;6.15;3.25;;;;;;;18.87;73.80;98385.13;4485685;31;20132;-67
2023/06/27 02:08:57;;;;;;;4.25;2.85;;;;;;;18.93;72.72;98379.81;4485640;32;20108;-67
2023/06/27 02:11:25;;;;;;;5.15;2.92;;;;;;;18.96;72.48;98384.72;4470113;31;20104;-67
2023/06/27 02:13:52;;;;;;;5.95;3.30;;;;;;;19.08;71.56;98384.16;4479339;32;20517;-67
2023/06/27 02:16:20;;;;;;;4.37;2.97;;;;;;;19.11;71.43;98387.22;4485889;32;20565;-67
2023/06/27 02:18:47;;;;;;;5.65;3.42;;;;;;;19.12;71.39;98390.69;4485881;31;20097;-67
2023/06/27 02:21:14;;;;;;;5.82;3.00;;;;;;;19.16;71.61;98394.56;4485613;31;20088;-67
2023/06/27 02:23:41;;;;;;;6.43;3.50;;;;;;;19.05;72.10;98385.37;4485652;31;20521;-67
2023/06/27 02:26:10;;;;;;;5.43;3.25;;;;;;;19.02;72.90;98380.47;4485622;31;20157;-67
2023/06/27 02:28:37;;;;;;;5.18;3.08;;;;;;;18.94;73.53;98380.63;4485470;31;20141;-67
2023/06/27 02:31:04;;;;;;;4.75;3.00;;;;;;;18.85;75.03;98371.19;4485620;31;20089;-67
2023/06/27 02:33:32;;;;;;;6.45;3.03;;;;;;;18.85;76.28;98361.44;4485496;31;20092;-67
2023/06/27 02:36:01;;;;;;;5.57;2.70;;;;;;;18.78;76.50;98361.38;4485710;31;20465;-67
2023/06/27 02:38:30;;;;;;;10.93;3.33;;;;;;;18.70;77.62;98355.41;4485304;32;20157;-67
2023/06/27 02:40:58;;;;;;;4.28;3.12;;;;;;;18.63;77.29;98358.88;4485550;31;20092;-67
2023/06/27 02:43:25;;;;;;;4.40;2.72;;;;;;;18.62;78.50;98349.31;4485763;31;20088;-67
2023/06/27 02:45:57;;;;;;;5.60;3.20;;;;;;;18.59;79.08;98341.75;4485529;31;20494;-67
2023/06/27 02:48:25;;;;;;;4.87;2.95;;;;;;;18.56;78.64;98343.97;4485654;31;20092;-67
2023/06/27 02:50:52;;;;;;;4.68;2.60;;;;;;;18.53;79.72;98342.53;4485569;31;20096;-67
2023/06/27 02:53:19;;;;;;;4.57;2.90;;;;;;;18.50;80.29;98344.75;4485408;31;20118;-67
2023/06/27 02:55:49;;;;;;;4.90;3.08;;;;;;;18.44;82.67;98349.03;4485780;31;20092;-67
2023/06/27 02:58:16;;;;;;;6.15;2.95;;;;;;;18.54;77.96;98365.38;4485418;31;20407;-67
2023/06/27 03:00:44;;;;;;;5.40;3.22;;;;;;;18.59;76.37;98368.28;4484500;32;20418;-67
2023/06/27 03:03:12;;;;;;;6.85;3.17;;;;;;;18.78;74.87;98374.66;4484538;32;20130;-67
2023/06/27 03:05:40;;;;;;;5.82;3.03;;;;;;;18.84;74.53;98383.66;4485717;31;20114;-67
2023/06/27 03:08:07;;;;;;;5.43;3.20;;;;;;;18.93;74.14;98374.50;4485663;31;20509;-67
2023/06/27 03:10:35;;;;;;;5.97;2.72;;;;;;;18.90;74.51;98371.44;4474943;31;20105;-67
2023/06/27 03:13:02;;;;;;;5.03;3.20;;;;;;;18.91;74.44;98375.72;4473691;32;20163;-67
2023/06/27 03:15:30;;;;;;;13.60;3.33;;;;;;;18.94;74.44;98368.19;4485549;31;20247;-67
2023/06/27 03:17:57;;;;;;;4.45;2.72;;;;;;;19.03;73.27;98368.00;4485408;31;20084;-67
2023/06/27 03:20:25;;;;;;;5.40;3.00;;;;;;;19.11;72.91;98370.47;4485667;32;20122;-67
2023/06/27 03:22:52;;;;;;;5.87;2.95;;;;;;;19.16;73.10;98368.03;4485636;31;20095;-67
2023/06/27 03:25:21;;;;;;;7.00;3.60;;;;;;;19.17;73.13;98361.69;4485529;31;20088;-67
2023/06/27 03:27:48;;;;;;;5.90;3.30;;;;;;;19.21;72.40;98368.22;4485152;31;20167;-67
2023/06/27 03:30:16;;;;;;;6.15;3.37;;;;;;;19.28;72.88;98365.59;4485397;31;20092;-67
2023/06/27 03:32:43;;;;;;;5.07;3.30;;;;;;;19.31;72.92;98360.66;4485423;31;20510;-67
2023/06/27 03:35:10;;;;;;;4.82;3.12;;;;;;;19.43;73.38;98373.38;4485404;31;20124;-67
2023/06/27 03:37:38;;;;;;;5.55;3.00;;;;;;;19.50;72.74;98363.56;4485481;31;20112;-67
2023/06/27 03:40:05;;;;;;;7.43;3.08;;;;;;;19.63;72.48;98357.41;4485210;31;20518;-67
2023/06/27 03:42:33;;;;;;;4.80;3.33;;;;;;;19.69;72.25;98356.59;4485471;32;20540;-67
2023/06/27 03:45:01;;;;;;;5.60;3.05;;;;;;;19.79;71.92;98350.88;4485385;32;20130;-67
2023/06/27 03:47:29;;;;;;;5.50;3.40;;;;;;;19.98;71.35;98343.88;4485107;31;20096;-67
2023/06/27 03:49:57;;;;;;;9.05;3.55;;;;;;;20.11;71.04;98340.37;4482923;32;20100;-67
2023/06/27 03:52:24;;;;;;;5.85;3.67;;;;;;;20.26;70.85;98351.59;4485075;31;20088;-67
2023/06/27 03:54:51;;;;;;;5.15;3.00;;;;;;;20.29;71.36;98353.03;4485271;31;20092;-67
2023/06/27 03:57:18;;;;;;;6.85;3.58;;;;;;;20.43;71.65;98349.25;4485067;31;20144;-67
2023/06/27 03:59:45;;;;;;;18.80;3.87;;;;;;;20.49;71.46;98350.28;4485115;32;20096;-67
2023/06/27 04:02:13;;;;;;;9.15;3.85;;;;;;;20.54;71.64;98353.91;4484951;31;20089;-67
2023/06/27 04:04:41;;;;;;;7.40;3.62;;;;;;;20.54;71.49;98366.41;4485180;31;20088;-67
2023/06/27 04:07:08;;;;;;;6.18;3.85;;;;;;;20.52;72.85;98363.16;4484684;31;20145;-66
2023/06/27 04:09:36;;;;;;;5.18;3.45;;;;;;;20.54;73.53;98363.75;4482928;31;20108;-67
2023/06/27 04:12:04;;;;;;;6.05;4.07;;;;;;;20.53;73.79;98362.09;4482675;32;20104;-67
2023/06/27 04:14:32;;;;;;;6.57;3.62;;;;;;;20.47;74.79;98365.59;4483714;32;20097;-67
2023/06/27 04:16:59;;;;;;;8.38;4.30;;;;;;;20.33;75.23;98363.03;4484783;31;20157;-67
2023/06/27 04:19:26;;;;;;;8.13;3.75;;;;;;;20.27;75.42;98373.66;4484634;31;20084;-67
2023/06/27 04:21:54;;;;;;;8.10;4.45;;;;;;;20.09;76.07;98371.66;4484943;31;20091;-67
2023/06/27 04:24:21;;;;;;;6.65;3.95;;;;;;;19.97;77.51;98372.31;4484989;31;20873;-67
2023/06/27 04:26:49;;;;;;;7.82;4.15;;;;;;;19.89;77.18;98383.16;4484877;31;20148;-67
2023/06/27 04:29:16;;;;;;;4.87;3.70;;;;;;;19.88;77.20;98383.38;4484684;31;20089;-67
2023/06/27 04:31:43;;;;;;;9.20;4.20;;;;;;;19.91;77.30;98370.50;4484745;31;20629;-67
2023/06/27 04:34:11;;;;;;;7.50;3.90;;;;;;;19.98;77.98;98371.28;4484173;31;20156;-67
2023/06/27 04:36:40;;;;;;;14.02;4.25;;;;;;;20.16;77.46;98372.47;4484365;31;20155;-67
2023/06/27 04:39:09;;;;;;;8.50;4.28;;;;;;;20.20;77.07;98363.88;4483759;31;20100;-67
2023/06/27 04:41:36;;;;;;;5.97;3.45;;;;;;;20.31;77.28;98375.69;4484476;31;20449;-67
2023/06/27 04:44:04;;;;;;;6.53;3.80;;;;;;;20.50;76.96;98383.81;4483374;32;20108;-67
2023/06/27 04:46:31;;;;;;;10.73;4.68;;;;;;;20.47;78.27;98394.88;4483149;31;20120;-67
2023/06/27 04:48:59;;;;;;;7.82;4.50;;;;;;;20.28;80.29;98389.41;4484378;31;20101;-67
2023/06/27 04:51:27;;;;;;;7.97;4.07;;;;;;;20.21;80.20;98397.44;4484024;31;20455;-67
2023/06/27 04:53:54;;;;;;;8.25;4.45;;;;;;;20.17;81.24;98414.00;4483583;31;20499;-67
2023/06/27 04:56:22;;;;;;;7.72;4.62;;;;;;;19.90;95.97;98416.72;4482411;31;20096;-67
2023/06/27 04:58:49;;;;;;;6.60;3.92;;;;;;;19.50;100.00;98422.81;4479807;32;20126;-67
2023/06/27 05:01:17;;;;;;;9.13;5.15;;;;;;;19.29;100.00;98394.59;4483804;31;20103;-67
2023/06/27 05:03:44;;;;;;;7.00;4.53;;;;;;;19.15;100.00;98382.31;4485946;32;20149;-67
2023/06/27 05:06:11;;;;;;;11.23;5.75;;;;;;;19.03;100.00;98374.12;4485229;32;20093;-67
2023/06/27 05:08:40;;;;;;;12.37;4.90;;;;;;;19.08;100.00;98370.87;4486321;31;20113;-67
2023/06/27 05:11:07;;;;;;;8.75;5.50;;;;;;;19.11;100.00;98365.97;4472427;31;20122;-67
2023/06/27 05:13:34;;;;;;;11.05;6.62;;;;;;;19.19;100.00;98366.81;4477588;32;20163;-66
2023/06/27 05:16:01;;;;;;;10.02;5.35;;;;;;;19.20;100.00;98357.78;4486337;31;20112;-66
2023/06/27 05:18:29;;;;;;;9.23;4.87;;;;;;;19.20;100.00;98369.25;4486263;31;20472;-66
2023/06/27 05:20:56;;;;;;;9.32;4.72;;;;;;;19.33;100.00;98366.62;4483977;31;20156;-66
2023/06/27 05:23:23;;;;;;;8.48;5.35;;;;;;;19.45;100.00;98380.09;4485103;32;20611;-64
2023/06/27 05:25:51;;;;;;;8.07;5.10;;;;;;;19.53;100.00;98389.72;4484328;31;20122;-65
2023/06/27 05:28:18;;;;;;;7.70;4.60;;;;;;;19.62;100.00;98393.81;4482136;31;20119;-65
2023/06/27 05:30:45;;;;;;;8.52;5.32;;;;;;;19.79;100.00;98390.75;4473893;31;20546;-66
2023/06/27 05:33:12;;;;;;;7.93;5.20;;;;;;;19.99;100.00;98399.50;4473757;32;20158;-66
2023/06/27 05:35:39;;;;;;;8.73;5.07;;;;;;;20.07;100.00;98389.69;4483701;32;20387;-66
2023/06/27 05:38:07;;;;;;;8.82;5.53;;;;;;;20.24;100.00;98390.06;4481169;32;20157;-66
2023/06/27 05:40:34;;;;;;;7.03;5.20;;;;;;;20.58;100.00;98385.44;4469793;32;20104;-66
2023/06/27 05:43:02;;;;;;;7.87;5.70;;;;;;;20.81;100.00;98385.75;4469344;32;20131;-68
2023/06/27 05:45:29;;;;;;;8.98;6.28;;;;;;;20.91;100.00;98385.31;4469600;32;20147;-67
2023/06/27 05:47:57;;;;;;;9.68;6.53;;;;;;;20.82;100.00;98403.38;4469569;32;20105;-68
2023/06/27 05:50:24;;;;;;;8.05;5.10;;;;;;;20.92;100.00;98401.06;4479383;32;20117;-67
2023/06/27 05:52:51;;;;;;;10.48;5.90;;;;;;;21.04;100.00;98398.53;4483059;31;20390;-68
2023/06/27 05:55:19;;;;;;;11.48;6.65;;;;;;;21.08;100.00;98401.59;4484560;31;20118;-68
2023/06/27 05:57:46;;;;;;;11.45;7.20;;;;;;;21.24;100.00;98401.09;4485803;31;20097;-68
2023/06/27 06:00:14;;;;;;;9.93;6.30;;;;;;;21.16;100.00;98398.66;4485571;31;20110;-68
2023/06/27 06:02:44;;;;;;;9.98;6.70;;;;;;;21.24;100.00;98395.75;4483216;31;20111;-68
2023/06/27 06:05:11;;;;;;;9.73;6.70;;;;;;;21.44;100.00;98400.13;4473699;32;20093;-68
2023/06/27 06:07:44;;;;;;;11.82;7.65;;;;;;;21.61;100.00;98387.91;4468402;32;20105;-68
2023/06/27 06:10:12;;;;;;;10.63;7.72;;;;;;;21.85;100.00;98387.28;4468304;32;20122;-68
2023/06/27 06:12:39;;;;;;;9.15;6.68;;;;;;;22.01;100.00;98383.25;4467546;32;20412;-68
2023/06/27 06:15:07;;;;;;;9.68;7.32;;;;;;;22.35;100.00;98387.22;4470448;32;20108;-68
2023/06/27 06:17:35;;;;;;;12.43;7.62;;;;;;;22.11;100.00;98389.72;4470274;32;20423;-69
2023/06/27 06:20:07;;;;;;;15.25;7.72;;;;;;;21.97;100.00;98393.56;4470175;32;20462;-69
2023/06/27 06:22:35;;;;;;;11.93;7.27;;;;;;;22.07;100.00;98391.19;4471641;31;20104;-69
2023/06/27 06:25:03;;;;;;;15.98;6.85;;;;;;;22.08;100.00;98387.47;4473254;32;20495;-69
2023/06/27 06:27:30;;;;;;;11.38;7.28;;;;;;;22.25;100.00;98385.03;4469510;31;20113;-69
2023/06/27 06:29:57;;;;;;;11.95;6.90;;;;;;;21.93;100.00;98393.16;4473290;32;20532;-69
2023/06/27 06:32:24;;;;;;;9.27;6.87;;;;;;;21.75;100.00;98396.59;4472085;32;20135;-69
2023/06/27 06:34:52;;;;;;;9.98;6.93;;;;;;;21.72;100.00;98397.03;4474019;32;20162;-69
2023/06/27 06:37:19;;;;;;;10.70;7.25;;;;;;;21.61;100.00;98395.09;4471258;32;20097;-68
2023/06/27 06:39:49;;;;;;;12.93;7.95;;;;;;;21.38;100.00;98401.81;4469370;32;20115;-68
2023/06/27 06:42:17;;;;;;;10.27;7.05;;;;;;;21.27;100.00;98400.66;4467606;32;20131;-69
2023/06/27 06:44:47;;;;;;;9.15;7.00;;;;;;;21.14;100.00;98399.94;4471800;32;20109;-69
2023/06/27 06:47:14;;;;;;;11.45;7.05;;;;;;;21.15;100.00;98404.22;4475333;32;20468;-69
2023/06/27 06:49:41;;;;;;;10.27;7.37;;;;;;;21.18;100.00;98403.78;4474238;32;20112;-68
2023/06/27 06:52:09;;;;;;;12.35;7.47;;;;;;;21.08;100.00;98413.06;4465926;32;20172;-69
2023/06/27 06:54:38;;;;;;;11.00;7.45;;;;;;;20.98;100.00;98428.69;4466655;32;20124;-68
2023/06/27 06:57:06;;;;;;;11.25;7.37;;;;;;;20.91;100.00;98450.03;4470452;32;20560;-69
2023/06/27 06:59:34;;;;;;;12.68;7.12;;;;;;;20.89;100.00;98443.28;4469793;32;20115;-69
2023/06/27 07:02:01;;;;;;;9.80;6.85;;;;;;;20.92;100.00;98430.37;4469994;31;20208;-69
2023/06/27 07:04:28;;;;;;;14.38;7.28;;;;;;;20.86;100.00;98435.72;4465995;32;20116;-69
2023/06/27 07:06:56;;;;;;;9.43;6.35;;;;;;;20.88;100.00;98429.16;4470841;32;20492;-68
2023/06/27 07:09:23;;;;;;;8.48;5.72;;;;;;;20.98;100.00;98425.22;4470397;32;20093;-68
2023/06/27 07:11:51;;;;;;;9.82;6.95;;;;;;;21.18;100.00;98419.75;4467846;32;20219;-68
2023/06/27 07:14:19;;;;;;;12.27;7.10;;;;;;;21.32;100.00;98431.97;4473331;32;20108;-68
2023/06/27 07:16:46;;;;;;;9.00;6.43;;;;;;;21.38;100.00;98436.44;4476750;32;20131;-68
2023/06/27 07:19:13;;;;;;;10.48;7.40;;;;;;;21.40;100.00;98430.91;4473629;31;20123;-68
2023/06/27 07:21:40;;;;;;;12.18;7.03;;;;;;;21.44;100.00;98437.44;4468158;32;20120;-68
2023/06/27 07:24:08;;;;;;;12.57;7.72;;;;;;;21.50;100.00;98435.78;4469490;32;20149;-68
2023/06/27 07:26:35;;;;;;;10.57;7.53;;;;;;;21.53;100.00;98440.66;4472349;32;20828;-68
2023/06/27 07:29:03;;;;;;;9.63;7.10;;;;;;;21.76;100.00;98440.09;4471971;31;20213;-68
2023/06/27 07:31:30;;;;;;;8.73;7.10;;;;;;;22.01;100.00;98437.41;4468327;32;20176;-68
2023/06/27 07:33:57;;;;;;;11.43;7.65;;;;;;;21.74;100.00;98442.16;4469768;31;20096;-68
2023/06/27 07:36:24;;;;;;;12.93;7.65;;;;;;;21.85;100.00;98445.97;4469235;32;20548;-68
2023/06/27 07:38:51;;;;;;;11.27;6.72;;;;;;;22.19;100.00;98443.81;4468165;32;20103;-68
2023/06/27 07:41:18;;;;;;;10.15;6.80;;;;;;;22.52;100.00;98435.50;4469899;32;20606;-68
2023/06/27 07:43:46;;;;;;;9.75;6.22;;;;;;;22.60;100.00;98451.19;4468453;32;20108;-68
2023/06/27 07:46:13;;;;;;;13.88;7.75;;;;;;;22.69;100.00;98459.72;4469972;32;20093;-68
2023/06/27 07:48:40;;;;;;;9.10;6.20;;;;;;;23.01;100.00;98463.06;4467356;32;20442;-68
2023/06/27 07:51:07;;;;;;;10.63;6.70;;;;;;;23.01;100.00;98460.38;4467773;32;20097;-68
2023/06/27 07:53:34;;;;;;;8.70;6.78;;;;;;;22.91;100.00;98468.09;4471259;32;20099;-68
2023/06/27 07:56:02;;;;;;;8.75;7.03;;;;;;;22.75;100.00;98463.38;4469941;31;20104;-68
2023/06/27 07:58:29;;;;;;;10.00;7.25;;;;;;;22.75;100.00;98468.72;4466722;32;20134;-68
2023/06/27 08:00:56;;;;;;;11.75;7.25;;;;;;;22.77;100.00;98479.97;4471879;32;20181;-68
2023/06/27 08:03:24;;;;;;;12.70;6.80;;;;;;;23.02;100.00;98485.22;4467525;32;20092;-68
2023/06/27 08:05:53;;;;;;;10.45;6.62;;;;;;;22.90;100.00;98481.69;4472641;32;20778;-68
2023/06/27 08:08:21;;;;;;;14.05;6.80;;;;;;;23.07;100.00;98487.22;4471320;31;20101;-68
2023/06/27 08:10:48;;;;;;;12.37;6.55;;;;;;;23.16;100.00;98483.22;4466415;31;20158;-68
2023/06/27 08:13:15;;;;;;;8.75;6.43;;;;;;;23.24;100.00;98490.09;4469871;32;20115;-68
2023/06/27 08:15:43;;;;;;;9.43;7.10;;;;;;;23.42;100.00;98491.91;4468014;31;20135;-68
2023/06/27 08:18:10;;;;;;;12.35;7.00;;;;;;;23.39;100.00;98485.16;4468445;32;20132;-68
2023/06/27 08:20:37;;;;;;;11.25;6.57;;;;;;;23.26;100.00;98482.69;4477367;32;20096;-68
2023/06/27 08:23:06;;;;;;;13.70;6.68;;;;;;;23.28;100.00;98481.41;4470663;32;20130;-68
2023/06/27 08:25:35;;;;;;;11.55;6.70;;;;;;;23.19;100.00;98490.78;4466563;32;20142;-68
2023/06/27 08:28:03;;;;;;;7.20;5.80;;;;;;;23.03;100.00;98489.53;4470224;32;20152;-68
2023/06/27 08:30:31;;;;;;;11.23;6.20;;;;;;;23.08;100.00;98488.88;4466288;32;20530;-68
2023/06/27 08:32:59;;;;;;;8.57;6.47;;;;;;;23.09;100.00;98483.31;4467680;32;20471;-68
2023/06/27 08:35:26;;;;;;;9.20;6.47;;;;;;;23.23;100.00;98475.94;4467862;32;20101;-68
2023/06/27 08:37:56;;;;;;;10.30;6.55;;;;;;;23.42;100.00;98482.03;4472921;32;20134;-68
2023/06/27 08:40:27;;;;;;;11.32;7.03;;;;;;;23.27;100.00;98477.13;4466086;32;20097;-68
2023/06/27 08:42:54;;;;;;;10.05;6.20;;;;;;;23.35;100.00;98481.34;4469976;32;20133;-68
2023/06/27 08:45:21;;;;;;;9.70;6.62;;;;;;;23.39;100.00;98485.16;4469962;32;20391;-68
2023/06/27 08:47:49;;;;;;;9.73;6.43;;;;;;;23.10;100.00;98478.78;4470435;32;20123;-68
2023/06/27 08:50:17;;;;;;;9.00;7.25;;;;;;;22.92;100.00;98490.28;4471300;31;20104;-68
2023/06/27 08:52:49;;;;;;;8.05;6.45;;;;;;;22.79;100.00;98486.72;4467836;32;20511;-68
2023/06/27 08:55:22;;;;;;;12.45;6.55;;;;;;;22.70;100.00;98482.72;4474429;32;20107;-68
2023/06/27 08:57:49;;;;;;;9.35;6.78;;;;;;;22.66;100.00;98484.22;4473349;32;20092;-68
2023/06/27 09:00:21;;;;;;;13.10;6.78;;;;;;;22.74;100.00;98483.94;4469909;32;20096;-69
2023/06/27 09:02:49;;;;;;;8.52;6.32;;;;;;;22.84;100.00;98486.88;4466692;32;20120;-68
2023/06/27 09:05:17;;;;;;;8.95;6.25;;;;;;;23.20;100.00;98495.09;4468736;32;20643;-68
2023/06/27 09:07:44;;;;;;;10.93;7.07;;;;;;;23.50;100.00;98497.78;4467576;32;20100;-67
2023/06/27 09:10:13;;;;;;;8.13;6.35;;;;;;;23.67;100.00;98502.47;4467902;32;20123;-67
2023/06/27 09:12:41;;;;;;;12.07;6.50;;;;;;;23.61;100.00;98508.72;4461002;32;20152;-67
2023/06/27 09:15:10;;;;;;;8.60;6.37;;;;;;;23.62;100.00;98511.19;4463428;32;20166;-67
2023/06/27 09:17:38;;;;;;;8.88;6.60;;;;;;;24.10;100.00;98506.75;4469964;32;20080;-68
2023/06/27 09:20:06;;;;;;;8.65;6.93;;;;;;;24.13;99.61;98516.19;4466075;32;20097;-67
2023/06/27 09:22:34;;;;;;;7.95;6.35;;;;;;;24.38;98.84;98518.66;4468798;32;20179;-67
2023/06/27 09:25:15;;;;;;;14.65;6.82;;;;;;;24.61;100.00;98513.28;4467473;32;20185;-67
2023/06/27 09:27:43;;;;;;;9.35;6.72;;;;;;;24.55;97.21;98521.41;4470050;32;20104;-67
2023/06/27 09:30:12;;;;;;;9.75;6.60;;;;;;;24.50;97.24;98522.13;4466258;32;20159;-67
2023/06/27 09:32:58;;;;;;;9.07;6.32;;;;;;;24.55;94.81;98516.06;4465659;32;20085;-67
2023/06/27 09:35:27;;;;;;;7.57;6.15;;;;;;;24.76;93.00;98520.84;4465909;32;20093;-67
2023/06/27 09:38:15;;;;;;;9.52;6.70;;;;;;;24.96;92.13;98520.44;4471836;32;20149;-67
2023/06/27 09:40:45;;;;;;;7.32;6.20;;;;;;;25.20;90.12;98515.00;4479461;32;20176;-67
2023/06/27 09:43:14;;;;;;;9.85;6.87;;;;;;;25.22;87.58;98509.41;4474875;32;20080;-67
2023/06/27 09:45:42;;;;;;;8.55;6.22;;;;;;;25.32;88.18;98518.50;4469176;32;20105;-67
2023/06/27 09:48:10;;;;;;;8.90;6.12;;;;;;;25.54;87.66;98515.13;4476497;32;20158;-67
2023/06/27 09:50:39;;;;;;;8.65;6.40;;;;;;;25.55;87.56;98522.13;4478443;32;20131;-67
2023/06/27 09:53:07;;;;;;;7.95;5.93;;;;;;;25.40;86.48;98525.34;4479842;31;20100;-67
2023/06/27 09:55:35;;;;;;;9.07;6.53;;;;;;;25.26;87.08;98524.78;4479858;31;20097;-67
2023/06/27 09:58:03;;;;;;;8.25;6.53;;;;;;;25.13;88.97;98533.09;4481592;31;20138;-67
2023/06/27 10:00:30;;;;;;;8.88;6.47;;;;;;;25.02;88.65;98533.97;4481841;31;20132;-67
2023/06/27 10:02:57;;;;;;;7.60;6.30;;;;;;;25.00;89.72;98541.41;4476873;32;20120;-67
2023/06/27 10:05:25;;;;;;;9.05;6.12;;;;;;;25.12;91.32;98534.16;4480471;32;20096;-67
2023/06/27 10:07:55;;;;;;;7.00;5.90;;;;;;;25.46;89.09;98535.09;4483315;31;20445;-66
2023/06/27 10:10:25;;;;;;;8.73;5.95;;;;;;;25.82;87.55;98543.00;4474999;31;20100;-66
2023/06/27 10:12:53;;;;;;;7.20;5.60;;;;;;;25.60;84.19;98535.66;4476315;32;20534;-66
2023/06/27 10:15:20;;;;;;;8.45;6.18;;;;;;;25.49;85.83;98539.19;4480844;32;20386;-66
2023/06/27 10:17:48;;;;;;;7.20;5.85;;;;;;;25.56;84.93;98537.19;4478225;31;20104;-67
2023/06/27 10:20:15;;;;;;;7.45;5.68;;;;;;;25.44;85.82;98542.59;4476524;32;20152;-66
2023/06/27 10:22:44;;;;;;;8.20;5.60;;;;;;;25.13;83.20;98544.66;4480485;32;20089;-66
2023/06/27 10:25:12;;;;;;;8.00;5.68;;;;;;;25.11;85.39;98532.53;4484043;31;20190;-67
2023/06/27 10:27:40;;;;;;;7.50;5.93;;;;;;;24.97;85.41;98532.00;4478385;32;20104;-66
2023/06/27 10:30:20;;;;;;;7.37;5.60;;;;;;;24.83;87.08;98534.12;4483710;31;20116;-67
2023/06/27 10:32:49;;;;;;;8.18;5.70;;;;;;;24.74;86.72;98528.31;4484982;31;20080;-64
2023/06/27 10:35:26;;;;;;;7.70;5.20;;;;;;;24.72;82.66;98533.06;4488293;31;20183;-64
2023/06/27 10:38:18;;;;;;;7.30;4.60;;;;;;;24.71;81.61;98554.72;4480054;32;20105;-66
2023/06/27 10:41:05;;;;;;;9.38;5.50;;;;;;;24.51;81.26;98561.25;4477105;32;20419;-66
2023/06/27 10:43:40;;;;;;;6.75;4.45;;;;;;;24.59;82.63;98573.50;4478176;32;20100;-66
2023/06/27 10:46:17;;;;;;;10.20;5.07;;;;;;;24.64;78.37;98575.50;4476240;32;20134;-66
2023/06/27 10:48:51;;;;;;;7.15;4.95;;;;;;;24.51;78.55;98577.31;4477828;32;20165;-66
2023/06/27 10:51:21;;;;;;;6.20;4.70;;;;;;;24.43;78.79;98588.38;4480989;31;20123;-67
2023/06/27 10:54:07;;;;;;;7.50;5.03;;;;;;;24.47;80.14;98586.03;4478210;32;20147;-66
2023/06/27 10:56:45;;;;;;;7.53;4.93;;;;;;;24.54;81.39;98587.56;4480730;32;20126;-66
2023/06/27 10:59:17;;;;;;;7.22;5.22;;;;;;;24.48;81.47;98574.28;4479215;32;20152;-67
2023/06/27 11:01:50;;;;;;;7.65;4.32;;;;;;;24.45;80.49;98578.22;4478828;32;20137;-66
2023/06/27 11:04:19;;;;;;;6.12;4.30;;;;;;;24.35;79.10;98584.16;4471254;32;20135;-66
2023/06/27 11:06:47;;;;;;;10.82;4.70;;;;;;;23.91;78.80;98588.97;4473890;32;20089;-66
2023/06/27 11:09:17;;;;;;;6.82;4.07;;;;;;;23.76;80.26;98581.34;4482299;32;20513;-66
2023/06/27 11:11:55;;;;;;;7.07;4.10;;;;;;;23.67;81.90;98588.06;4476996;32;20109;-67
2023/06/27 11:14:38;;;;;;;9.65;4.80;;;;;;;23.53;84.20;98590.91;4481975;32;20138;-67
2023/06/27 11:17:06;;;;;;;6.53;4.72;;;;;;;23.52;84.46;98596.47;4479107;31;20100;-67
2023/06/27 11:19:33;;;;;;;12.00;4.70;;;;;;;23.45;85.91;98611.78;4483384;31;20088;-66
2023/06/27 11:22:01;;;;;;;7.57;4.90;;;;;;;23.16;85.97;98606.16;4483244;31;20112;-65
2023/06/27 11:24:29;;;;;;;5.80;4.43;;;;;;;23.12;87.35;98605.78;4480869;32;20118;-66
2023/06/27 11:26:58;;;;;;;8.82;4.60;;;;;;;23.15;87.68;98620.53;4483899;31;20143;-66
2023/06/27 11:29:26;;;;;;;6.65;5.05;;;;;;;23.16;88.62;98623.00;4476589;31;20152;-66
2023/06/27 11:31:56;;;;;;;7.60;5.03;;;;;;;23.14;89.44;98626.94;4481013;31;20586;-67
2023/06/27 11:34:23;;;;;;;6.97;5.18;;;;;;;23.25;90.15;98625.38;4480657;32;20167;-65
2023/06/27 11:36:51;;;;;;;8.77;5.32;;;;;;;23.48;90.41;98622.84;4480227;31;20130;-66